createdAt,value
2022-08-26T00:01:54.656Z,4.72
2022-08-26T00:04:25.997Z,4.18
2022-08-26T00:06:56.917Z,5.57
2022-08-26T00:09:25.230Z,5.78
2022-08-26T00:11:54.273Z,3.83
2022-08-26T00:16:57.047Z,5.25
2022-08-26T00:19:25.392Z,4.70
2022-08-26T00:21:52.549Z,5.82
2022-08-26T00:24:21.627Z,6.30
2022-08-26T00:26:48.993Z,7.25
2022-08-26T00:29:17.419Z,6.95
2022-08-26T00:31:45.308Z,4.83
2022-08-26T00:34:14.105Z,7.75
2022-08-26T00:36:42.740Z,4.95
2022-08-26T00:39:10.702Z,6.80
2022-08-26T00:41:39.779Z,5.30
2022-08-26T00:44:08.341Z,4.97
2022-08-26T00:46:46.608Z,6.78
2022-08-26T00:49:23.142Z,6.93
2022-08-26T00:51:53.631Z,3.17
2022-08-26T00:54:24.460Z,3.58
2022-08-26T00:57:02.447Z,5.25
2022-08-26T00:59:33.186Z,4.57
2022-08-26T01:02:02.875Z,4.88
2022-08-26T01:04:33.437Z,4.97
2022-08-26T01:07:01.344Z,4.88
2022-08-26T01:09:28.579Z,9.98
2022-08-26T01:12:00.347Z,9.40
2022-08-26T01:14:32.383Z,4.50
2022-08-26T01:17:03.148Z,5.47
2022-08-26T01:19:40.823Z,6.90
2022-08-26T01:22:14.097Z,4.78
2022-08-26T01:24:41.603Z,4.80
2022-08-26T01:27:12.349Z,5.15
2022-08-26T01:29:42.929Z,6.43
2022-08-26T01:32:14.473Z,5.90
2022-08-26T01:34:42.016Z,5.90
2022-08-26T01:37:15.960Z,7.03
2022-08-26T01:39:47.109Z,6.18
2022-08-26T01:42:15.862Z,6.63
2022-08-26T01:44:52.650Z,7.95
2022-08-26T01:47:23.442Z,6.53
2022-08-26T01:49:55.008Z,6.97
2022-08-26T01:52:27.998Z,4.28
2022-08-26T01:54:57.796Z,5.38
2022-08-26T01:57:26.261Z,6.47
2022-08-26T01:59:58.358Z,7.30
2022-08-26T02:02:26.218Z,6.03
2022-08-26T02:04:59.504Z,6.53
2022-08-26T02:07:28.047Z,4.28
2022-08-26T02:09:55.640Z,4.45
2022-08-26T02:12:23.145Z,5.18
2022-08-26T02:14:58.080Z,5.10
2022-08-26T02:17:41.983Z,4.63
2022-08-26T02:20:13.282Z,5.43
2022-08-26T02:22:42.956Z,9.40
2022-08-26T02:25:25.018Z,5.75
2022-08-26T02:27:52.733Z,8.38
2022-08-26T02:30:28.274Z,6.57
2022-08-26T02:32:55.645Z,6.10
2022-08-26T02:35:23.758Z,7.28
2022-08-26T02:37:52.363Z,6.68
2022-08-26T02:40:27.634Z,6.18
2022-08-26T02:43:08.488Z,7.20
2022-08-26T02:45:36.136Z,6.40
2022-08-26T02:48:17.008Z,4.75
2022-08-26T02:50:46.256Z,6.60
2022-08-26T02:53:13.507Z,5.85
2022-08-26T02:55:41.721Z,9.40
2022-08-26T02:58:09.761Z,6.47
2022-08-26T03:00:39.315Z,9.07
2022-08-26T03:03:20.725Z,5.90
2022-08-26T03:05:51.584Z,8.10
2022-08-26T03:08:19.409Z,5.95
2022-08-26T03:10:47.580Z,6.30
2022-08-26T03:13:15.612Z,6.33
2022-08-26T03:15:42.772Z,5.03
2022-08-26T03:18:11.003Z,7.03
2022-08-26T03:20:38.740Z,5.70
2022-08-26T03:23:06.534Z,5.28
2022-08-26T03:25:34.189Z,5.20
2022-08-26T03:28:02.301Z,5.90
2022-08-26T03:30:45.322Z,5.70
2022-08-26T03:33:13.291Z,6.15
2022-08-26T03:35:41.979Z,5.70
2022-08-26T03:38:09.484Z,6.75
2022-08-26T03:40:37.444Z,7.07
2022-08-26T03:43:06.939Z,8.32
2022-08-26T03:45:37.918Z,5.78
2022-08-26T03:48:05.824Z,5.68
2022-08-26T03:50:34.233Z,4.95
2022-08-26T03:53:04.128Z,6.85
2022-08-26T03:55:32.992Z,8.90
2022-08-26T03:58:01.075Z,6.22
2022-08-26T04:00:28.631Z,5.63
2022-08-26T04:02:56.297Z,6.70
2022-08-26T04:05:23.744Z,8.50
2022-08-26T04:07:52.000Z,7.40
2022-08-26T04:10:28.977Z,7.03
2022-08-26T04:12:58.972Z,5.65
2022-08-26T04:15:27.084Z,6.90
2022-08-26T04:17:54.470Z,6.90
2022-08-26T04:20:23.227Z,7.07
2022-08-26T04:22:51.057Z,6.28
2022-08-26T04:25:18.633Z,5.15
2022-08-26T04:27:48.248Z,8.35
2022-08-26T04:30:15.866Z,7.65
2022-08-26T04:32:44.367Z,9.83
2022-08-26T04:35:11.606Z,5.28
2022-08-26T04:37:40.071Z,6.88
2022-08-26T04:40:11.043Z,6.50
2022-08-26T04:42:38.245Z,5.40
2022-08-26T04:45:06.099Z,7.95
2022-08-26T04:47:38.070Z,5.07
2022-08-26T04:50:06.880Z,6.70
2022-08-26T04:52:36.546Z,6.05
2022-08-26T04:55:08.322Z,7.63
2022-08-26T04:57:36.198Z,10.35
2022-08-26T05:00:08.927Z,4.30
2022-08-26T05:02:36.393Z,5.13
2022-08-26T05:05:05.209Z,6.50
2022-08-26T05:07:32.985Z,6.82
2022-08-26T05:10:00.257Z,7.60
2022-08-26T05:12:29.122Z,6.10
2022-08-26T05:14:56.292Z,5.88
2022-08-26T05:17:23.691Z,8.48
2022-08-26T05:19:50.851Z,9.23
2022-08-26T05:22:18.379Z,7.18
2022-08-26T05:24:46.485Z,6.70
2022-08-26T05:27:14.632Z,4.22
2022-08-26T05:29:42.368Z,6.05
2022-08-26T05:32:11.453Z,6.95
2022-08-26T05:34:38.590Z,6.25
2022-08-26T05:37:05.896Z,7.20
2022-08-26T05:39:33.687Z,6.72
2022-08-26T05:42:01.559Z,6.45
2022-08-26T05:44:29.406Z,9.90
2022-08-26T05:47:16.543Z,10.77
2022-08-26T05:49:45.161Z,9.70
2022-08-26T05:52:19.890Z,8.82
2022-08-26T05:54:47.647Z,7.80
2022-08-26T05:57:15.613Z,9.38
2022-08-26T05:59:42.745Z,10.68
2022-08-26T06:02:10.178Z,12.88
2022-08-26T06:04:37.265Z,12.52
2022-08-26T06:07:04.459Z,10.07
2022-08-26T06:09:36.961Z,7.90
2022-08-26T06:12:05.875Z,10.35
2022-08-26T06:14:33.037Z,12.68
2022-08-26T06:17:00.758Z,11.00
2022-08-26T06:19:33.043Z,10.65
2022-08-26T06:22:23.405Z,11.30
2022-08-26T06:25:09.160Z,11.10
2022-08-26T06:27:37.133Z,10.00
2022-08-26T06:30:04.792Z,9.60
2022-08-26T06:32:32.010Z,12.35
2022-08-26T06:34:59.308Z,10.82
2022-08-26T06:37:26.493Z,14.07
2022-08-26T06:39:53.644Z,11.68
2022-08-26T06:42:21.063Z,10.75
2022-08-26T06:44:49.210Z,10.40
2022-08-26T06:47:16.769Z,8.93
2022-08-26T06:49:44.327Z,14.82
2022-08-26T06:52:11.720Z,14.63
2022-08-26T06:54:43.085Z,20.10
2022-08-26T06:57:11.783Z,14.85
2022-08-26T06:59:39.453Z,11.60
2022-08-26T07:02:07.426Z,15.55
2022-08-26T07:04:35.710Z,18.02
2022-08-26T07:07:03.057Z,16.20
2022-08-26T07:09:33.019Z,14.13
2022-08-26T07:12:00.225Z,18.20
2022-08-26T07:14:27.413Z,13.20
2022-08-26T07:16:54.953Z,14.52
2022-08-26T07:19:31.185Z,17.08
2022-08-26T07:22:04.028Z,15.15
2022-08-26T07:24:34.999Z,15.48
2022-08-26T07:27:06.009Z,15.02
2022-08-26T07:29:33.984Z,15.43
2022-08-26T07:32:02.008Z,11.32
2022-08-26T07:34:29.422Z,12.95
2022-08-26T07:36:56.938Z,16.00
2022-08-26T07:39:25.105Z,15.27
2022-08-26T07:41:53.050Z,17.65
2022-08-26T07:44:20.933Z,12.18
2022-08-26T07:46:52.429Z,13.45
2022-08-26T07:49:25.080Z,11.90
2022-08-26T07:51:54.041Z,17.02
2022-08-26T07:54:26.671Z,17.55
2022-08-26T07:56:56.007Z,23.35
2022-08-26T07:59:23.610Z,16.10
2022-08-26T08:01:51.058Z,15.63
2022-08-26T08:04:21.900Z,16.58
2022-08-26T08:06:55.136Z,17.63
2022-08-26T08:09:22.853Z,14.30
2022-08-26T08:11:51.291Z,17.05
2022-08-26T08:14:22.221Z,15.35
2022-08-26T08:16:50.974Z,15.98
2022-08-26T08:19:23.034Z,15.55
2022-08-26T08:21:51.116Z,15.15
2022-08-26T08:24:18.838Z,13.45
2022-08-26T08:26:46.045Z,19.52
2022-08-26T08:29:13.235Z,19.00
2022-08-26T08:31:58.269Z,13.50
2022-08-26T08:34:28.349Z,15.07
2022-08-26T08:36:57.181Z,12.35
2022-08-26T08:39:26.241Z,16.70
2022-08-26T08:42:06.430Z,12.70
2022-08-26T08:44:37.700Z,14.73
2022-08-26T08:47:30.803Z,11.25
2022-08-26T08:50:03.447Z,11.82
2022-08-26T08:52:35.377Z,12.63
2022-08-26T08:55:10.366Z,13.10
2022-08-26T08:58:01.968Z,13.02
2022-08-26T09:00:45.060Z,12.32
2022-08-26T09:03:38.133Z,12.77
2022-08-26T09:06:16.917Z,13.45
2022-08-26T09:08:47.519Z,15.35
2022-08-26T09:11:19.809Z,12.75
2022-08-26T09:13:53.004Z,12.75
2022-08-26T09:16:43.783Z,12.02
2022-08-26T09:19:39.389Z,15.48
2022-08-26T09:22:09.283Z,11.98
2022-08-26T09:24:41.992Z,13.95
2022-08-26T09:27:36.533Z,10.70
2022-08-26T09:30:05.726Z,13.75
2022-08-26T09:32:35.123Z,18.73
2022-08-26T09:35:07.993Z,19.52
2022-08-26T09:37:36.876Z,11.25
